createdAt,value
2023-05-18T00:04:45.271Z,82.91
2023-05-18T00:09:46.895Z,83.27
2023-05-18T00:14:48.415Z,83.49
2023-05-18T00:19:50.343Z,83.24
2023-05-18T00:24:51.918Z,83.68
2023-05-18T00:29:53.443Z,84.30
2023-05-18T00:34:55.059Z,84.57
2023-05-18T00:39:56.600Z,85.34
2023-05-18T00:44:58.159Z,85.86
2023-05-18T00:49:59.697Z,86.37
2023-05-18T00:55:01.571Z,86.81
2023-05-18T01:00:03.342Z,87.60
2023-05-18T01:05:05.053Z,88.28
2023-05-18T01:10:07.415Z,88.70
2023-05-18T01:15:14.627Z,89.31
2023-05-18T01:20:25.005Z,90.02
2023-05-18T01:25:54.082Z,90.42
2023-05-18T01:30:56.807Z,90.60
2023-05-18T01:35:58.434Z,91.08
2023-05-18T01:41:14.931Z,91.62
2023-05-18T01:46:25.324Z,92.09
2023-05-18T01:51:33.201Z,92.25
2023-05-18T01:56:35.920Z,92.97
2023-05-18T02:01:37.991Z,92.96
2023-05-18T02:06:39.805Z,93.42
2023-05-18T02:11:41.501Z,93.49
2023-05-18T02:16:47.126Z,93.70
2023-05-18T02:21:48.953Z,93.64
2023-05-18T02:26:53.625Z,93.97
2023-05-18T02:31:55.396Z,93.98
2023-05-18T02:36:58.087Z,94.52
2023-05-18T02:42:00.253Z,94.95
2023-05-18T02:47:01.796Z,95.84
2023-05-18T02:52:03.454Z,96.70
2023-05-18T02:57:05.070Z,96.80
2023-05-18T03:02:06.811Z,97.49
2023-05-18T03:07:08.665Z,98.08
2023-05-18T03:12:10.244Z,98.19
2023-05-18T03:17:11.829Z,97.00
2023-05-18T03:22:13.410Z,97.13
2023-05-18T03:27:16.450Z,96.02
2023-05-18T03:32:21.370Z,95.67
2023-05-18T03:37:22.892Z,95.53
2023-05-18T03:42:25.735Z,94.82
2023-05-18T03:47:27.335Z,94.43
2023-05-18T03:52:29.857Z,94.31
2023-05-18T03:57:32.200Z,93.94
2023-05-18T04:02:33.951Z,92.55
2023-05-18T04:07:43.870Z,91.18
2023-05-18T04:12:45.875Z,91.00
2023-05-18T04:17:50.968Z,90.74
2023-05-18T04:22:52.550Z,90.44
2023-05-18T04:27:55.223Z,88.80
2023-05-18T04:32:58.373Z,88.64
2023-05-18T04:38:00.095Z,88.17
2023-05-18T04:43:01.773Z,87.67
2023-05-18T04:48:03.494Z,86.12
2023-05-18T04:53:07.751Z,86.11
2023-05-18T04:58:10.485Z,85.37
2023-05-18T05:03:12.257Z,84.86
2023-05-18T05:08:13.888Z,84.18
2023-05-18T05:13:15.496Z,83.46
2023-05-18T05:18:17.105Z,83.44
2023-05-18T05:23:18.795Z,82.64
2023-05-18T05:28:20.520Z,82.42
2023-05-18T05:33:22.024Z,81.30
2023-05-18T05:38:23.533Z,80.89
2023-05-18T05:43:25.099Z,80.71
2023-05-18T05:48:26.688Z,80.13
2023-05-18T05:53:29.676Z,79.44
2023-05-18T05:58:31.206Z,79.18
2023-05-18T06:03:35.173Z,79.31
2023-05-18T06:08:37.503Z,78.55
2023-05-18T06:13:39.115Z,78.06
2023-05-18T06:18:40.754Z,77.71
2023-05-18T06:23:44.499Z,78.22
2023-05-18T06:28:46.018Z,76.74
2023-05-18T06:33:48.048Z,77.09
2023-05-18T06:38:49.563Z,76.50
2023-05-18T06:43:51.205Z,76.17
2023-05-18T06:48:53.252Z,76.50
2023-05-18T06:53:54.762Z,77.50
2023-05-18T06:58:57.018Z,76.21
2023-05-18T07:03:59.944Z,76.17
2023-05-18T07:09:03.297Z,77.96
2023-05-18T07:14:04.828Z,77.18
2023-05-18T07:19:06.787Z,75.49
2023-05-18T07:24:08.441Z,74.41
2023-05-18T07:29:10.006Z,73.80
2023-05-18T07:34:11.620Z,73.46
2023-05-18T07:39:19.707Z,73.87
2023-05-18T07:44:21.374Z,72.35
2023-05-18T07:49:25.959Z,70.02
2023-05-18T07:54:27.573Z,70.53
2023-05-18T07:59:29.172Z,69.78
2023-05-18T08:04:31.035Z,70.58
2023-05-18T08:09:32.575Z,70.21
2023-05-18T08:14:34.135Z,70.44
2023-05-18T08:19:37.412Z,70.76
2023-05-18T08:24:40.054Z,70.09
2023-05-18T08:29:41.597Z,70.32
2023-05-18T08:34:46.286Z,70.01
2023-05-18T08:39:47.841Z,69.82
2023-05-18T08:45:30.371Z,70.01
2023-05-18T08:50:33.153Z,69.97
2023-05-18T08:55:37.001Z,70.02
2023-05-18T09:00:38.801Z,70.92
2023-05-18T09:05:42.013Z,71.03
2023-05-18T09:10:44.112Z,70.51
2023-05-18T09:15:46.227Z,69.00
2023-05-18T09:20:48.170Z,67.54
2023-05-18T09:25:51.139Z,68.44
2023-05-18T09:30:54.078Z,66.78
2023-05-18T09:35:55.754Z,66.07
2023-05-18T09:40:57.365Z,65.17
2023-05-18T09:46:06.486Z,65.17
2023-05-18T09:51:10.609Z,65.09
2023-05-18T09:56:12.476Z,63.90
2023-05-18T10:01:14.100Z,61.85
2023-05-18T10:06:19.871Z,62.05
2023-05-18T10:11:21.942Z,54.76
2023-05-18T10:16:24.655Z,50.44
2023-05-18T10:21:31.123Z,49.92
2023-05-18T10:26:36.889Z,50.08
2023-05-18T10:31:39.046Z,49.23
2023-05-18T10:36:42.781Z,50.80
2023-05-18T10:41:46.734Z,53.02
2023-05-18T10:46:50.144Z,52.37
2023-05-18T10:51:55.865Z,53.59
2023-05-18T10:56:57.689Z,55.81
2023-05-18T11:02:01.309Z,57.28
2023-05-18T11:07:03.099Z,58.46
2023-05-18T11:12:12.241Z,58.84
2023-05-18T11:17:29.427Z,59.23
2023-05-18T11:22:57.420Z,60.44
2023-05-18T11:28:05.535Z,60.91
2023-05-18T11:33:17.508Z,61.01
2023-05-18T11:38:19.233Z,61.98
2023-05-18T11:43:24.934Z,61.36
2023-05-18T11:48:30.226Z,61.47
2023-05-18T11:53:31.960Z,60.76
2023-05-18T11:58:33.578Z,62.50
2023-05-18T12:03:36.059Z,63.04
2023-05-18T12:08:41.023Z,62.11
2023-05-18T12:13:42.770Z,62.07
2023-05-18T12:18:51.101Z,62.20
2023-05-18T12:24:01.029Z,61.95
2023-05-18T12:29:02.621Z,62.19
2023-05-18T12:34:04.219Z,60.98
2023-05-18T12:39:06.042Z,61.23
2023-05-18T12:44:07.694Z,61.16
2023-05-18T12:49:10.370Z,61.39
2023-05-18T12:54:11.976Z,61.22
2023-05-18T12:59:18.517Z,60.76
2023-05-18T13:04:20.100Z,60.77
2023-05-18T13:09:21.714Z,59.89
2023-05-18T13:14:23.711Z,58.72
2023-05-18T13:19:26.119Z,59.28
2023-05-18T13:24:27.808Z,58.82
2023-05-18T13:29:29.624Z,58.72
2023-05-18T13:34:31.734Z,58.52
2023-05-18T13:39:33.277Z,58.90
2023-05-18T13:44:34.979Z,58.76
2023-05-18T13:49:36.626Z,57.92
2023-05-18T13:54:38.433Z,58.03
2023-05-18T13:59:40.400Z,58.59
2023-05-18T14:04:41.946Z,57.24
2023-05-18T14:09:43.520Z,56.19
2023-05-18T14:14:45.147Z,55.64
2023-05-18T14:19:46.657Z,56.17
2023-05-18T14:24:48.808Z,56.83
2023-05-18T14:29:51.234Z,56.54
2023-05-18T14:34:55.417Z,56.70
2023-05-18T14:39:57.060Z,57.94
2023-05-18T14:44:58.637Z,58.02
2023-05-18T14:50:00.224Z,58.59
2023-05-18T14:55:01.867Z,58.44
2023-05-18T15:00:03.906Z,58.07
2023-05-18T15:05:05.976Z,57.80
2023-05-18T15:10:08.234Z,58.69
2023-05-18T15:15:10.072Z,59.36
2023-05-18T15:20:11.875Z,59.36
2023-05-18T15:25:13.496Z,59.35
2023-05-18T15:30:15.227Z,59.62
2023-05-18T15:35:16.953Z,59.93
2023-05-18T15:40:18.672Z,60.14
2023-05-18T15:45:20.316Z,61.47
2023-05-18T15:50:21.854Z,62.67
2023-05-18T15:55:23.558Z,63.80
2023-05-18T16:00:26.284Z,64.63
2023-05-18T16:05:27.805Z,65.80
2023-05-18T16:10:29.740Z,67.24
2023-05-18T16:15:35.242Z,68.70
2023-05-18T16:20:36.789Z,69.75
2023-05-18T16:25:38.343Z,69.63
2023-05-18T16:30:39.908Z,70.73
2023-05-18T16:35:41.454Z,71.39
2023-05-18T16:40:43.169Z,71.82
2023-05-18T16:45:45.269Z,72.93
2023-05-18T16:50:47.051Z,73.57
2023-05-18T16:55:50.514Z,74.30
2023-05-18T17:00:53.282Z,75.06
2023-05-18T17:05:54.861Z,75.57
2023-05-18T17:10:56.379Z,76.20
2023-05-18T17:15:57.967Z,76.80
2023-05-18T17:20:59.566Z,77.88
2023-05-18T17:26:06.763Z,77.92
2023-05-18T17:31:08.642Z,78.44
2023-05-18T17:36:10.209Z,79.31
2023-05-18T17:41:11.782Z,79.84
2023-05-18T17:46:13.421Z,80.95
2023-05-18T17:51:15.642Z,81.21
2023-05-18T17:56:17.421Z,81.87
2023-05-18T18:01:19.030Z,82.40
2023-05-18T18:06:24.279Z,83.01
2023-05-18T18:11:26.583Z,84.35
2023-05-18T18:16:28.274Z,85.09
2023-05-18T18:21:29.843Z,85.74
2023-05-18T18:26:32.219Z,86.35
2023-05-18T18:31:33.821Z,87.32
2023-05-18T18:36:36.187Z,88.29
2023-05-18T18:41:37.796Z,88.96
2023-05-18T18:46:39.490Z,89.71
2023-05-18T18:51:41.037Z,90.62
2023-05-18T18:56:43.980Z,91.16
2023-05-18T19:01:46.452Z,92.13
2023-05-18T19:06:48.455Z,92.12
2023-05-18T19:11:49.980Z,93.35
2023-05-18T19:16:51.575Z,93.91
2023-05-18T19:21:53.152Z,94.17
2023-05-18T19:26:54.832Z,94.39
2023-05-18T19:31:57.259Z,94.74
2023-05-18T19:36:58.840Z,95.32
2023-05-18T19:42:00.885Z,95.62
2023-05-18T19:47:02.551Z,96.38
2023-05-18T19:52:08.145Z,97.03
2023-05-18T19:57:09.762Z,97.38
2023-05-18T20:02:11.335Z,97.91
2023-05-18T20:07:12.933Z,98.42
2023-05-18T20:12:14.553Z,97.77
2023-05-18T20:17:16.837Z,96.98
2023-05-18T20:22:18.484Z,96.95
2023-05-18T20:27:20.088Z,96.43
2023-05-18T20:32:21.860Z,97.17
2023-05-18T20:37:26.049Z,97.74
2023-05-18T20:42:38.497Z,98.22
2023-05-18T20:47:41.658Z,98.37
2023-05-18T20:52:43.767Z,98.88
2023-05-18T20:57:48.957Z,99.24
2023-05-18T21:02:50.614Z,98.73
2023-05-18T21:07:53.567Z,99.60
2023-05-18T21:12:55.489Z,99.66
2023-05-18T21:17:57.059Z,100.00
2023-05-18T21:22:58.890Z,99.94
2023-05-18T21:28:00.537Z,100.00
2023-05-18T21:33:02.589Z,100.00
2023-05-18T21:38:04.489Z,100.00
2023-05-18T21:43:06.042Z,100.00
2023-05-18T21:48:07.862Z,100.00
2023-05-18T21:53:09.513Z,100.00
2023-05-18T21:58:11.075Z,100.00
2023-05-18T22:03:12.831Z,100.00
2023-05-18T22:08:14.362Z,100.00
2023-05-18T22:13:16.106Z,100.00
2023-05-18T22:18:19.296Z,100.00
2023-05-18T22:23:22.092Z,100.00
2023-05-18T22:28:23.722Z,100.00
2023-05-18T22:33:25.552Z,100.00
2023-05-18T22:38:27.732Z,100.00
2023-05-18T22:43:29.854Z,100.00
2023-05-18T22:48:34.573Z,100.00
2023-05-18T22:53:36.147Z,100.00
2023-05-18T22:58:37.747Z,100.00
2023-05-18T23:03:39.312Z,100.00
2023-05-18T23:08:40.877Z,100.00
2023-05-18T23:13:42.531Z,100.00
2023-05-18T23:18:46.101Z,100.00
2023-05-18T23:23:47.720Z,100.00
2023-05-18T23:28:49.575Z,100.00
2023-05-18T23:33:51.617Z,100.00
2023-05-18T23:39:00.873Z,100.00
2023-05-18T23:44:02.660Z,100.00
2023-05-18T23:49:04.543Z,100.00
2023-05-18T23:54:07.412Z,100.00
2023-05-18T23:59:09.894Z,100.00
